Time;durP1;ratioP1;P1;durP2;ratioP2;P2;SDS_P1;SDS_P2;PMS_P1;PMS_P2;Temp;Humidity;BMP_temperature;BMP_pressure;BME280_temperature;BME280_humidity;BME280_pressure;Samples;Min_cycle;Max_cycle;Signal;HPM_P1;HPM_P2
2021/08/17 00:00:58;;;;;;;7.13;4.83;;;;;;;20.04;73.57;99218.44;154751;1098;103188;-91
2021/08/17 00:04:01;;;;;;;6.53;4.73;;;;;;;19.98;73.48;99215.62;154621;1091;103113;-91
2021/08/17 00:07:05;;;;;;;6.20;4.30;;;;;;;19.94;73.72;99214.45;154678;1098;103289;-95
2021/08/17 00:10:11;;;;;;;6.93;4.30;;;;;;;19.93;73.37;99229.05;154294;1099;103197;-91
2021/08/17 00:13:14;;;;;;;6.63;4.70;;;;;;;19.92;73.39;99237.40;154716;1093;103138;-89
2021/08/17 00:16:16;;;;;;;5.10;4.40;;;;;;;19.89;72.98;99222.47;154736;1093;103188;-82
2021/08/17 00:19:19;;;;;;;8.57;4.77;;;;;;;19.83;73.14;99220.72;154674;1093;103107;-83
2021/08/17 00:22:23;;;;;;;9.33;4.63;;;;;;;19.74;73.13;99220.25;154720;1098;103257;-83
2021/08/17 00:25:26;;;;;;;6.90;4.70;;;;;;;19.70;72.90;99220.95;154738;1098;103109;-83
2021/08/17 00:28:28;;;;;;;5.27;4.40;;;;;;;19.70;72.57;99226.37;154729;1098;103121;-85
2021/08/17 00:31:31;;;;;;;6.83;4.08;;;;;;;19.68;72.90;99231.20;154613;1094;103183;-84
2021/08/17 00:34:34;;;;;;;5.33;4.13;;;;;;;19.70;72.82;99231.78;154740;1098;103118;-85
2021/08/17 00:37:37;;;;;;;9.03;4.57;;;;;;;19.73;72.47;99217.81;154673;1098;103250;-85
2021/08/17 00:40:39;;;;;;;7.23;4.10;;;;;;;19.74;72.80;99225.67;154749;1093;103179;-85
2021/08/17 00:43:43;;;;;;;5.67;3.97;;;;;;;19.74;72.81;99224.86;154807;1093;103107;-83
2021/08/17 00:46:45;;;;;;;6.60;3.78;;;;;;;19.75;72.99;99215.69;154665;1091;103189;-84
2021/08/17 00:49:48;;;;;;;5.37;4.00;;;;;;;19.78;73.11;99226.02;154543;1093;103124;-82
2021/08/17 00:52:53;;;;;;;9.73;4.93;;;;;;;19.80;72.96;99213.06;154689;1098;103183;-84
2021/08/17 00:55:57;;;;;;;9.65;5.00;;;;;;;19.79;72.75;99223.08;154563;1093;103601;-83
2021/08/17 00:58:59;;;;;;;6.03;4.70;;;;;;;19.75;72.67;99237.34;154731;1098;103198;-84
2021/08/17 01:02:03;;;;;;;6.50;3.83;;;;;;;19.71;72.63;99247.78;154683;1098;103107;-82
2021/08/17 01:05:10;;;;;;;4.77;3.50;;;;;;;19.69;72.60;99259.89;154633;1098;103152;-85
2021/08/17 01:08:12;;;;;;;11.43;3.90;;;;;;;19.68;72.68;99267.20;154766;1098;103155;-88
2021/08/17 01:11:15;;;;;;;8.33;3.87;;;;;;;19.67;72.56;99272.84;154156;1098;103193;-81
2021/08/17 01:14:19;;;;;;;6.03;4.10;;;;;;;19.66;72.51;99290.97;154677;1093;103659;-83
2021/08/17 01:17:22;;;;;;;6.27;4.20;;;;;;;19.60;72.31;99292.73;154727;1093;103130;-82
2021/08/17 01:20:25;;;;;;;7.68;4.33;;;;;;;19.52;72.46;99303.92;154650;1098;103170;-83
2021/08/17 01:23:31;;;;;;;6.10;4.10;;;;;;;19.49;72.62;99309.78;154685;1098;103209;-82
2021/08/17 01:26:33;;;;;;;8.53;3.87;;;;;;;19.43;72.55;99327.78;154624;1098;103192;-80
2021/08/17 01:29:36;;;;;;;5.80;4.10;;;;;;;19.41;72.45;99339.90;154604;1098;103176;-84
2021/08/17 01:32:39;;;;;;;5.87;3.97;;;;;;;19.40;72.68;99332.86;154629;1098;103128;-81
2021/08/17 01:35:42;;;;;;;5.93;4.30;;;;;;;19.37;72.62;99333.31;154518;1098;103125;-78
2021/08/17 01:38:49;;;;;;;5.93;4.10;;;;;;;19.35;72.42;99346.25;154600;1093;103143;-81
2021/08/17 01:41:53;;;;;;;5.20;4.20;;;;;;;19.27;72.85;99339.30;154609;1098;103267;-80
2021/08/17 01:44:57;;;;;;;5.65;3.80;;;;;;;19.25;72.69;99336.00;154657;1098;103189;-79
2021/08/17 01:48:00;;;;;;;6.07;3.70;;;;;;;19.23;72.54;99330.81;154630;1098;103121;-79
2021/08/17 01:51:03;;;;;;;7.60;4.10;;;;;;;19.18;72.50;99327.98;154628;1098;103157;-79
2021/08/17 01:54:07;;;;;;;5.17;3.93;;;;;;;19.12;72.53;99325.39;154617;1098;103122;-80
2021/08/17 01:57:09;;;;;;;5.43;3.85;;;;;;;19.09;72.69;99326.69;154606;1093;103268;-80
2021/08/17 02:00:14;;;;;;;7.37;4.27;;;;;;;19.00;72.48;99336.18;154592;1098;103208;-78
2021/08/17 02:03:16;;;;;;;6.00;4.30;;;;;;;18.75;72.68;99333.59;154554;1098;103148;-82
2021/08/17 02:06:19;;;;;;;5.17;3.73;;;;;;;18.62;72.71;99337.30;154535;1098;103135;-79
2021/08/17 02:09:22;;;;;;;6.13;3.70;;;;;;;18.47;72.77;99343.09;154614;1094;103126;-78
2021/08/17 02:12:25;;;;;;;7.23;4.15;;;;;;;18.33;72.86;99345.13;154590;1093;103195;-77
2021/08/17 02:15:27;;;;;;;8.23;4.43;;;;;;;18.29;72.92;99341.23;154522;1093;103208;-77
2021/08/17 02:18:32;;;;;;;8.70;4.57;;;;;;;18.18;72.97;99339.29;154365;1094;103200;-77
2021/08/17 02:21:35;;;;;;;7.30;4.90;;;;;;;18.04;73.18;99331.34;154554;1094;103138;-77
2021/08/17 02:24:38;;;;;;;8.10;4.40;;;;;;;17.95;73.44;99329.16;154546;1093;103130;-77
2021/08/17 02:27:41;;;;;;;5.90;4.05;;;;;;;17.86;73.55;99334.05;154576;1093;103224;-76
2021/08/17 02:30:43;;;;;;;6.63;4.13;;;;;;;17.81;73.42;99336.54;154578;1098;103095;-76
2021/08/17 02:33:46;;;;;;;5.87;4.20;;;;;;;17.75;73.58;99340.14;154566;1098;103153;-84
2021/08/17 02:36:49;;;;;;;5.93;4.27;;;;;;;17.66;73.84;99337.70;154584;1098;103119;-80
2021/08/17 02:39:52;;;;;;;5.75;4.30;;;;;;;17.61;73.73;99324.07;154562;1098;103226;-79
2021/08/17 02:42:55;;;;;;;10.50;4.30;;;;;;;17.57;73.81;99324.72;154514;1098;103240;-85
2021/08/17 02:45:57;;;;;;;6.93;3.77;;;;;;;17.57;74.01;99322.02;154626;1098;103131;-82
2021/08/17 02:49:00;;;;;;;4.73;3.50;;;;;;;17.56;73.93;99305.02;154730;1093;103189;-81
2021/08/17 02:52:05;;;;;;;6.93;4.40;;;;;;;17.48;74.11;99313.41;154686;1098;103187;-81
2021/08/17 02:55:12;;;;;;;7.85;4.20;;;;;;;17.44;74.79;99304.11;154601;1093;103120;-79
2021/08/17 02:58:16;;;;;;;6.10;4.55;;;;;;;17.29;75.07;99295.53;154578;1093;103190;-79
2021/08/17 03:01:19;;;;;;;5.77;3.87;;;;;;;17.19;74.61;99283.36;154572;1098;103284;-80
2021/08/17 03:04:22;;;;;;;6.57;3.63;;;;;;;17.19;74.70;99285.24;154718;1098;103091;-82
2021/08/17 03:07:24;;;;;;;8.40;4.10;;;;;;;17.16;74.47;99277.58;154710;1098;103711;-78
2021/08/17 03:10:28;;;;;;;8.23;3.83;;;;;;;17.16;74.83;99281.09;155103;1098;103093;-87
2021/08/17 03:13:31;;;;;;;5.43;4.00;;;;;;;17.16;74.90;99288.37;154939;1094;103125;-84
2021/08/17 03:16:33;;;;;;;6.27;3.93;;;;;;;17.21;74.92;99283.97;155250;1098;103188;-80
2021/08/17 03:19:36;;;;;;;4.57;3.33;;;;;;;17.31;74.60;99283.47;154718;1093;103131;-83
2021/08/17 03:22:39;;;;;;;5.83;3.93;;;;;;;17.43;74.68;99299.75;154725;1098;103569;-79
2021/08/17 03:25:42;;;;;;;8.80;4.00;;;;;;;17.55;74.45;99303.39;153946;1093;103197;-82
2021/08/17 03:28:45;;;;;;;5.77;4.00;;;;;;;17.55;74.38;99306.09;154608;1098;103132;-83
2021/08/17 03:31:48;;;;;;;5.73;4.10;;;;;;;17.47;74.43;99314.44;154658;1093;103255;-82
2021/08/17 03:34:52;;;;;;;9.87;3.97;;;;;;;17.41;74.63;99309.94;154621;1098;103190;-82
2021/08/17 03:37:54;;;;;;;6.37;3.90;;;;;;;17.38;74.54;99316.60;154654;1098;103120;-82
2021/08/17 03:40:57;;;;;;;5.07;3.70;;;;;;;17.37;74.79;99319.52;154671;1098;103212;-83
2021/08/17 03:44:00;;;;;;;5.30;3.85;;;;;;;17.25;74.68;99314.83;154690;1098;103121;-83
2021/08/17 03:47:03;;;;;;;8.03;3.90;;;;;;;17.23;74.78;99324.19;154807;1098;103571;-82
2021/08/17 03:50:09;;;;;;;5.60;4.05;;;;;;;17.23;74.53;99332.28;154670;1098;103250;-83
2021/08/17 03:53:12;;;;;;;5.53;3.60;;;;;;;17.29;74.68;99335.97;154702;1098;103132;-82
2021/08/17 03:56:15;;;;;;;6.27;3.40;;;;;;;17.32;74.78;99339.06;154685;1098;103116;-83
2021/08/17 03:59:17;;;;;;;4.87;3.87;;;;;;;17.35;74.76;99340.48;154674;1098;103133;-83
2021/08/17 04:02:20;;;;;;;7.30;3.80;;;;;;;17.44;74.52;99352.66;154674;1098;104710;-82
2021/08/17 04:05:24;;;;;;;5.57;3.60;;;;;;;17.53;74.66;99355.88;154686;1093;103248;-83
2021/08/17 04:08:27;;;;;;;7.80;3.93;;;;;;;17.62;74.69;99359.96;154127;1093;103125;-83
2021/08/17 04:11:30;;;;;;;5.03;3.70;;;;;;;17.67;74.48;99362.83;154044;1093;103147;-84
2021/08/17 04:14:32;;;;;;;6.30;3.70;;;;;;;17.65;74.36;99371.14;154046;1101;103194;-82
2021/08/17 04:17:36;;;;;;;4.37;3.30;;;;;;;17.66;74.49;99372.77;154049;1101;103128;-82
2021/08/17 04:20:38;;;;;;;5.27;3.47;;;;;;;17.71;74.44;99374.83;154172;1093;103253;-84
2021/08/17 04:23:41;;;;;;;3.97;2.90;;;;;;;17.45;73.72;99376.68;154066;1101;103243;-83
2021/08/17 04:26:44;;;;;;;3.60;2.20;;;;;;;17.34;73.59;99385.50;154072;1101;103128;-83
2021/08/17 04:29:47;;;;;;;4.13;2.30;;;;;;;17.25;73.64;99403.80;154140;1093;103236;-83
2021/08/17 04:32:49;;;;;;;2.83;1.90;;;;;;;17.16;73.69;99407.80;154137;1101;103209;-83
2021/08/17 04:35:52;;;;;;;3.60;2.00;;;;;;;16.96;73.18;99409.80;154056;1093;103114;-83
2021/08/17 04:38:55;;;;;;;3.80;1.80;;;;;;;16.77;73.15;99422.29;154064;1101;103276;-82
2021/08/17 04:41:58;;;;;;;1.87;1.60;;;;;;;16.60;73.49;99432.71;154051;1101;103154;-83
2021/08/17 04:45:00;;;;;;;2.17;1.40;;;;;;;16.57;73.31;99443.89;154060;1101;103187;-83
2021/08/17 04:48:04;;;;;;;3.50;1.70;;;;;;;16.58;73.30;99459.03;154056;1101;103193;-83
2021/08/17 04:51:09;;;;;;;2.80;1.70;;;;;;;16.48;73.25;99462.98;154248;1093;103214;-82
2021/08/17 04:54:12;;;;;;;2.37;1.53;;;;;;;16.40;73.29;99465.91;154252;1101;103235;-82
2021/08/17 04:57:15;;;;;;;2.80;1.40;;;;;;;16.36;73.15;99464.68;154204;1101;103189;-82
2021/08/17 05:00:19;;;;;;;2.20;1.50;;;;;;;16.33;72.24;99483.11;154194;1093;103121;-82
2021/08/17 05:03:23;;;;;;;3.63;2.00;;;;;;;16.33;72.96;99477.73;154685;1098;103193;-82
2021/08/17 05:06:25;;;;;;;4.33;2.47;;;;;;;16.30;73.02;99473.57;154814;1093;103175;-82
2021/08/17 05:09:28;;;;;;;6.77;3.00;;;;;;;16.24;72.89;99474.41;154804;1098;103288;-83
2021/08/17 05:12:31;;;;;;;3.30;1.87;;;;;;;16.22;73.19;99480.00;154742;1093;103109;-82
2021/08/17 05:15:34;;;;;;;3.23;1.80;;;;;;;16.31;73.23;99494.09;154734;1098;103180;-82
2021/08/17 05:18:37;;;;;;;4.43;1.43;;;;;;;16.44;73.07;99490.55;154710;1098;103194;-82
2021/08/17 05:21:39;;;;;;;2.40;1.60;;;;;;;16.51;73.04;99487.83;154779;1093;103097;-82
2021/08/17 05:24:42;;;;;;;2.47;1.80;;;;;;;16.57;72.51;99490.53;154883;1098;103264;-81
2021/08/17 05:27:46;;;;;;;2.57;1.50;;;;;;;16.56;72.93;99498.81;154830;1098;103203;-82
2021/08/17 05:30:49;;;;;;;2.40;1.60;;;;;;;16.55;72.83;99497.99;154767;1098;103160;-82
2021/08/17 05:33:52;;;;;;;2.93;2.10;;;;;;;16.44;72.73;99499.45;154799;1093;103189;-82
2021/08/17 05:36:55;;;;;;;4.23;1.77;;;;;;;16.48;73.10;99502.56;154872;1093;103139;-82
2021/08/17 05:39:58;;;;;;;3.20;1.63;;;;;;;16.52;73.29;99511.05;154887;1098;103224;-82
2021/08/17 05:43:03;;;;;;;4.67;1.60;;;;;;;16.64;72.91;99512.05;154698;1093;103154;-74
2021/08/17 05:46:06;;;;;;;3.05;1.60;;;;;;;16.74;73.04;99507.03;154649;1098;103109;-73
2021/08/17 05:49:09;;;;;;;2.80;1.67;;;;;;;16.81;72.55;99510.55;154631;1098;103126;-73
2021/08/17 05:52:14;;;;;;;2.73;2.00;;;;;;;16.78;72.80;99510.98;154382;1094;103572;-74
2021/08/17 05:55:17;;;;;;;3.33;1.97;;;;;;;16.69;72.84;99523.84;154090;1093;103196;-73
2021/08/17 05:58:20;;;;;;;2.95;1.70;;;;;;;16.78;73.12;99521.77;154072;1101;103198;-74
2021/08/17 06:01:23;;;;;;;2.70;1.70;;;;;;;16.96;72.85;99525.68;154090;1101;103131;-74
2021/08/17 06:04:26;;;;;;;3.10;2.00;;;;;;;17.00;72.62;99516.94;154003;1093;103102;-73
2021/08/17 06:07:29;;;;;;;2.65;1.70;;;;;;;17.21;72.31;99518.52;154063;1101;103104;-73
2021/08/17 06:10:32;;;;;;;3.57;2.10;;;;;;;17.19;72.37;99517.91;154028;1101;103262;-74
2021/08/17 06:13:35;;;;;;;4.37;2.10;;;;;;;17.30;72.46;99505.59;154085;1101;103116;-74
2021/08/17 06:16:37;;;;;;;3.03;2.20;;;;;;;17.47;72.51;99511.31;154037;1101;103110;-75
2021/08/17 06:19:40;;;;;;;3.70;2.30;;;;;;;17.76;72.58;99512.58;153996;1101;103554;-75
2021/08/17 06:22:43;;;;;;;4.07;2.10;;;;;;;17.91;71.71;99523.10;154148;1093;103189;-74
2021/08/17 06:25:46;;;;;;;2.57;1.70;;;;;;;17.98;71.90;99521.19;154139;1093;103344;-73
2021/08/17 06:28:49;;;;;;;2.90;2.20;;;;;;;18.13;71.55;99526.27;154088;1101;103294;-74
2021/08/17 06:31:51;;;;;;;2.95;2.30;;;;;;;18.17;71.07;99524.77;153997;1101;103119;-73
2021/08/17 06:34:54;;;;;;;3.97;2.20;;;;;;;18.25;71.33;99532.59;154070;1101;103112;-74
2021/08/17 06:37:57;;;;;;;3.15;2.10;;;;;;;18.24;70.08;99522.85;153999;1093;103123;-73
2021/08/17 06:41:00;;;;;;;5.80;2.40;;;;;;;18.30;70.66;99517.59;153958;1101;103198;-74
2021/08/17 06:44:03;;;;;;;3.40;2.30;;;;;;;18.43;70.54;99515.59;154031;1101;103276;-73
2021/08/17 06:47:06;;;;;;;5.47;2.60;;;;;;;18.56;70.29;99524.63;154050;1101;103133;-74
2021/08/17 06:50:10;;;;;;;3.50;2.00;;;;;;;18.66;69.51;99540.33;154006;1094;103110;-74
2021/08/17 06:53:12;;;;;;;2.90;2.10;;;;;;;18.64;69.73;99529.73;153969;1093;103119;-73
2021/08/17 06:56:15;;;;;;;3.33;2.00;;;;;;;18.70;69.50;99550.45;154073;1101;103137;-73
2021/08/17 06:59:18;;;;;;;2.90;2.03;;;;;;;18.67;69.11;99550.92;154109;1101;103183;-74
2021/08/17 07:02:21;;;;;;;3.35;2.30;;;;;;;18.75;69.35;99549.80;154178;1101;103174;-72
2021/08/17 07:05:24;;;;;;;3.80;2.00;;;;;;;18.78;69.38;99555.59;154126;1093;103204;-74
2021/08/17 07:08:26;;;;;;;3.13;1.97;;;;;;;18.80;68.88;99556.22;153967;1093;103157;-75
2021/08/17 07:11:29;;;;;;;4.03;2.20;;;;;;;18.73;67.25;99560.83;154039;1093;103575;-74
2021/08/17 07:14:32;;;;;;;4.00;2.00;;;;;;;18.52;68.37;99559.37;154016;1093;103123;-73
2021/08/17 07:17:36;;;;;;;4.55;2.15;;;;;;;18.42;68.07;99559.88;154128;1101;103553;-73
2021/08/17 07:20:41;;;;;;;3.83;1.95;;;;;;;18.33;67.06;99553.09;154089;1093;103566;-74
2021/08/17 07:23:43;;;;;;;6.27;2.20;;;;;;;18.21;68.10;99557.56;154043;1101;103138;-73
2021/08/17 07:26:46;;;;;;;5.30;2.10;;;;;;;18.34;68.02;99562.86;154093;1101;103184;-73
2021/08/17 07:29:49;;;;;;;4.40;2.03;;;;;;;18.38;67.62;99564.06;154061;1093;103194;-73
2021/08/17 07:32:52;;;;;;;4.23;2.33;;;;;;;18.30;67.34;99558.11;154025;1101;103269;-74
2021/08/17 07:35:54;;;;;;;3.23;2.10;;;;;;;18.29;67.42;99554.59;154066;1101;103140;-74
2021/08/17 07:38:57;;;;;;;3.23;2.00;;;;;;;18.16;66.68;99565.48;154096;1094;103138;-73
2021/08/17 07:42:00;;;;;;;4.60;2.20;;;;;;;18.21;67.21;99568.37;154146;1101;103096;-73
2021/08/17 07:45:05;;;;;;;4.38;2.20;;;;;;;18.41;67.46;99577.11;154039;1101;103125;-74
2021/08/17 07:48:08;;;;;;;5.00;2.50;;;;;;;18.59;67.33;99570.09;154105;1101;103192;-73
2021/08/17 07:51:11;;;;;;;5.03;2.63;;;;;;;18.70;67.02;99566.67;154041;1093;103304;-74
2021/08/17 07:54:13;;;;;;;4.60;3.17;;;;;;;18.79;66.61;99570.73;154094;1094;103243;-73
2021/08/17 07:57:16;;;;;;;4.30;3.10;;;;;;;18.80;66.28;99575.14;154024;1101;103185;-74
2021/08/17 08:00:19;;;;;;;4.77;2.80;;;;;;;18.95;65.57;99577.45;153996;1101;103135;-75
2021/08/17 08:03:22;;;;;;;5.35;3.00;;;;;;;19.05;65.38;99573.41;154079;1101;103132;-74
2021/08/17 08:06:25;;;;;;;3.93;2.53;;;;;;;19.27;65.16;99574.61;154061;1101;103280;-74
2021/08/17 08:09:27;;;;;;;4.03;2.78;;;;;;;19.31;64.10;99589.33;154176;1101;103208;-74
2021/08/17 08:12:30;;;;;;;6.43;2.73;;;;;;;19.21;62.60;99583.64;154129;1101;103134;-74
2021/08/17 08:15:33;;;;;;;3.33;2.37;;;;;;;19.08;63.59;99583.78;154083;1093;103187;-74
2021/08/17 08:18:36;;;;;;;3.90;2.30;;;;;;;18.95;63.95;99585.56;154052;1093;103212;-74
2021/08/17 08:21:38;;;;;;;5.33;2.70;;;;;;;18.97;63.47;99582.64;154003;1093;103569;-73
2021/08/17 08:24:42;;;;;;;4.55;2.75;;;;;;;19.08;63.90;99590.02;154060;1101;103283;-73
2021/08/17 08:27:45;;;;;;;4.43;2.48;;;;;;;19.21;63.30;99600.68;154136;1101;103575;-74
2021/08/17 08:30:48;;;;;;;3.67;2.50;;;;;;;19.31;63.76;99610.16;154025;1101;103189;-74
2021/08/17 08:33:51;;;;;;;4.73;2.30;;;;;;;19.27;63.56;99604.36;153974;1101;103138;-73
2021/08/17 08:36:54;;;;;;;3.78;2.33;;;;;;;19.26;62.60;99601.88;154057;1101;103116;-74
2021/08/17 08:39:57;;;;;;;5.20;2.77;;;;;;;19.25;62.85;99606.47;154086;1093;103262;-74
2021/08/17 08:43:00;;;;;;;4.40;2.48;;;;;;;19.32;62.23;99606.38;154383;1093;103209;-73
2021/08/17 08:46:03;;;;;;;4.67;2.33;;;;;;;19.39;62.96;99612.55;154620;1098;103137;-74
2021/08/17 08:49:06;;;;;;;4.53;2.30;;;;;;;19.68;62.46;99615.52;154595;1093;103125;-74
2021/08/17 08:52:09;;;;;;;4.27;2.87;;;;;;;19.94;61.72;99619.78;154603;1098;103126;-74
2021/08/17 08:55:12;;;;;;;3.67;2.37;;;;;;;20.06;61.47;99625.23;154613;1093;103261;-74
2021/08/17 08:58:15;;;;;;;4.17;2.30;;;;;;;20.13;61.31;99629.50;154679;1098;103218;-74
2021/08/17 09:01:22;;;;;;;2.83;2.33;;;;;;;20.00;60.76;99624.27;154702;1093;103567;-75
2021/08/17 09:04:26;;;;;;;6.33;2.63;;;;;;;19.78;61.42;99632.06;154621;1098;103189;-73
2021/08/17 09:07:37;;;;;;;4.00;2.40;;;;;;;19.66;61.90;99634.69;154645;1098;103118;-74
2021/08/17 09:10:40;;;;;;;4.28;2.40;;;;;;;19.56;61.79;99634.41;154686;1098;103144;-74
2021/08/17 09:13:43;;;;;;;3.30;2.40;;;;;;;19.45;61.70;99644.09;154685;1098;103214;-74
2021/08/17 09:16:47;;;;;;;3.90;2.40;;;;;;;19.36;61.67;99640.04;154536;1093;103238;-73
2021/08/17 09:19:49;;;;;;;3.30;2.60;;;;;;;19.41;61.68;99638.31;154055;1093;103189;-74
2021/08/17 09:22:52;;;;;;;3.30;2.55;;;;;;;19.69;61.66;99636.95;154122;1098;103106;-75
2021/08/17 09:25:57;;;;;;;3.97;2.40;;;;;;;20.01;61.72;99642.16;154455;1098;103269;-74
2021/08/17 09:29:01;;;;;;;4.03;2.53;;;;;;;20.28;61.17;99637.17;154636;1093;103128;-74
2021/08/17 09:32:14;;;;;;;4.30;2.60;;;;;;;20.47;60.77;99637.10;154716;1093;103096;-74
2021/08/17 09:35:19;;;;;;;5.13;3.00;;;;;;;20.41;60.51;99657.83;154603;1098;103103;-74
2021/08/17 09:38:21;;;;;;;3.40;2.73;;;;;;;20.38;59.62;99655.56;154561;1093;103557;-74
2021/08/17 09:41:25;;;;;;;6.40;3.10;;;;;;;20.15;58.81;99659.88;154035;1101;103259;-74
2021/08/17 09:44:28;;;;;;;4.67;2.90;;;;;;;20.24;59.18;99673.91;154060;1093;103142;-74
2021/08/17 09:47:32;;;;;;;3.40;3.10;;;;;;;20.40;58.23;99667.03;154127;1098;103096;-74
2021/08/17 09:50:38;;;;;;;3.78;3.13;;;;;;;20.55;58.58;99647.59;154627;1093;103311;-74
2021/08/17 09:53:41;;;;;;;6.20;2.90;;;;;;;20.57;58.46;99659.88;154620;1098;103145;-74
2021/08/17 09:56:53;;;;;;;3.40;2.80;;;;;;;20.50;57.59;99661.04;154571;1093;103212;-74
2021/08/17 09:59:56;;;;;;;4.08;2.85;;;;;;;20.48;58.19;99663.16;154203;1093;103135;-73
2021/08/17 10:02:58;;;;;;;4.23;2.70;;;;;;;20.48;58.83;99657.73;154014;1101;103184;-74
2021/08/17 10:06:02;;;;;;;3.75;2.80;;;;;;;20.58;58.36;99672.35;153973;1101;103335;-74
2021/08/17 10:09:05;;;;;;;4.57;2.70;;;;;;;20.69;58.72;99661.78;154151;1100;103108;-74
2021/08/17 10:12:09;;;;;;;3.90;2.70;;;;;;;20.84;58.86;99680.31;153968;1101;103376;-74
2021/08/17 10:15:12;;;;;;;7.07;3.20;;;;;;;20.79;57.52;99670.17;154015;1100;103150;-74
2021/08/17 10:18:18;;;;;;;3.73;3.00;;;;;;;20.60;57.06;99680.28;154338;1098;103123;-74
2021/08/17 10:21:21;;;;;;;5.23;3.10;;;;;;;20.29;57.85;99674.05;154015;1101;103119;-74
2021/08/17 10:24:26;;;;;;;5.58;2.90;;;;;;;20.29;58.03;99670.53;153977;1101;103198;-74
2021/08/17 10:27:33;;;;;;;3.30;2.60;;;;;;;20.21;58.06;99679.81;153959;1101;103185;-74
2021/08/17 10:30:36;;;;;;;4.70;2.85;;;;;;;20.09;57.55;99677.06;154018;1101;103122;-74
2021/08/17 10:33:41;;;;;;;5.10;2.83;;;;;;;20.12;57.46;99678.47;153964;1101;103189;-74
2021/08/17 10:36:45;;;;;;;3.20;2.80;;;;;;;20.11;57.42;99693.06;154038;1093;103147;-75
2021/08/17 10:39:48;;;;;;;4.20;2.83;;;;;;;20.16;57.35;99690.50;154116;1094;103128;-75
2021/08/17 10:42:52;;;;;;;3.43;2.70;;;;;;;20.19;55.83;99690.05;154135;1093;103293;-74
2021/08/17 10:45:58;;;;;;;4.40;2.60;;;;;;;20.43;57.45;99690.12;154047;1093;103125;-74
2021/08/17 10:49:01;;;;;;;2.80;2.45;;;;;;;20.79;56.84;99689.16;154019;1101;103192;-74
2021/08/17 10:52:07;;;;;;;5.87;2.50;;;;;;;21.08;56.13;99683.87;153946;1093;103110;-73
2021/08/17 10:55:28;;;;;;;4.33;2.50;;;;;;;21.22;56.32;99701.55;153989;1101;104661;-73
2021/08/17 10:58:41;;;;;;;3.23;2.28;;;;;;;21.36;56.05;99710.26;154052;1100;103289;-74
2021/08/17 11:01:46;;;;;;;3.83;2.47;;;;;;;21.35;55.74;99700.48;154061;1093;103125;-73
2021/08/17 11:04:50;;;;;;;3.90;2.47;;;;;;;21.30;55.87;99697.64;154021;1093;103193;-75
2021/08/17 11:07:53;;;;;;;3.63;2.23;;;;;;;21.27;55.92;99703.56;153977;1093;103579;-74
2021/08/17 11:10:56;;;;;;;2.97;2.23;;;;;;;21.31;55.26;99705.55;154019;1093;103191;-74
2021/08/17 11:14:09;;;;;;;3.63;2.60;;;;;;;21.36;55.17;99712.97;153975;1101;103272;-74
2021/08/17 11:17:13;;;;;;;4.65;2.70;;;;;;;21.48;54.89;99730.13;154025;1101;103211;-74
2021/08/17 11:20:17;;;;;;;3.97;2.40;;;;;;;21.39;54.73;99739.65;153954;1101;103159;-73
2021/08/17 11:23:20;;;;;;;5.25;2.30;;;;;;;21.18;54.54;99720.17;154075;1093;103183;-74
2021/08/17 11:26:31;;;;;;;3.20;2.30;;;;;;;21.04;54.96;99710.64;153984;1093;103188;-74
2021/08/17 11:29:40;;;;;;;3.90;2.23;;;;;;;21.04;55.06;99710.64;153934;1093;103143;-73
2021/08/17 11:32:44;;;;;;;3.37;2.20;;;;;;;21.12;54.72;99707.56;154008;1101;103158;-73
2021/08/17 11:35:47;;;;;;;4.08;2.20;;;;;;;21.21;54.43;99715.34;154079;1101;103208;-73
2021/08/17 11:38:50;;;;;;;3.27;2.30;;;;;;;21.33;54.68;99713.47;154041;1093;103204;-74
2021/08/17 11:41:53;;;;;;;3.90;2.37;;;;;;;21.43;54.73;99705.54;154010;1101;103563;-74
2021/08/17 11:44:58;;;;;;;4.67;2.00;;;;;;;21.47;53.92;99693.17;153979;1101;103362;-75
2021/08/17 11:48:02;;;;;;;3.17;2.50;;;;;;;21.37;53.62;99703.78;154051;1101;103192;-74
2021/08/17 11:51:09;;;;;;;3.80;2.50;;;;;;;21.32;53.35;99718.05;153996;1101;103460;-74
2021/08/17 11:54:14;;;;;;;6.45;2.50;;;;;;;21.24;53.74;99712.98;154027;1093;103190;-74
2021/08/17 11:57:23;;;;;;;3.43;2.20;;;;;;;21.27;53.72;99704.38;154012;1093;103118;-73
2021/08/17 12:00:28;;;;;;;2.77;1.97;;;;;;;21.45;53.69;99708.05;154016;1093;103189;-75
2021/08/17 12:03:31;;;;;;;4.33;2.10;;;;;;;21.41;53.40;99710.38;154044;1094;103141;-73
2021/08/17 12:06:34;;;;;;;3.33;1.83;;;;;;;21.46;53.31;99701.55;153941;1093;103132;-74
2021/08/17 12:09:38;;;;;;;3.00;2.20;;;;;;;21.54;53.50;99704.73;154006;1101;103198;-74
2021/08/17 12:13:01;;;;;;;3.40;2.10;;;;;;;21.60;53.10;99705.67;154029;1101;103265;-74
2021/08/17 12:16:04;;;;;;;4.47;2.30;;;;;;;21.74;52.14;99711.66;154022;1101;103279;-74
2021/08/17 12:19:11;;;;;;;3.53;2.17;;;;;;;21.78;52.93;99717.44;153990;1101;103193;-75
2021/08/17 12:22:26;;;;;;;4.30;2.30;;;;;;;21.89;52.82;99717.40;153959;1093;103112;-74
2021/08/17 12:25:29;;;;;;;2.90;2.13;;;;;;;22.00;53.05;99720.30;153987;1101;103128;-74
2021/08/17 12:28:34;;;;;;;4.37;2.30;;;;;;;22.09;52.74;99732.45;153941;1101;103189;-74
2021/08/17 12:31:38;;;;;;;3.08;2.25;;;;;;;22.10;52.02;99713.20;153973;1093;103131;-74
2021/08/17 12:34:45;;;;;;;4.23;2.30;;;;;;;22.04;51.84;99713.35;154054;1101;103121;-74
2021/08/17 12:37:49;;;;;;;5.20;2.40;;;;;;;21.91;51.92;99719.88;153971;1093;103193;-74
2021/08/17 12:40:54;;;;;;;3.70;2.00;;;;;;;21.81;52.32;99715.06;153968;1101;103132;-74
2021/08/17 12:43:57;;;;;;;4.07;2.17;;;;;;;21.75;52.37;99721.47;154000;1101;103189;-75
2021/08/17 12:47:09;;;;;;;4.00;2.20;;;;;;;21.85;51.48;99705.37;153963;1101;103280;-74
2021/08/17 12:50:13;;;;;;;4.03;2.10;;;;;;;21.73;51.68;99710.02;154051;1093;103237;-73
2021/08/17 12:53:20;;;;;;;4.93;2.30;;;;;;;21.73;52.04;99707.30;153955;1094;103182;-73
2021/08/17 12:56:23;;;;;;;3.33;2.07;;;;;;;21.74;51.11;99711.66;153995;1093;103127;-74
2021/08/17 12:59:26;;;;;;;4.10;2.30;;;;;;;21.75;50.65;99716.03;153994;1101;103180;-74
2021/08/17 13:02:28;;;;;;;2.97;2.17;;;;;;;21.69;51.26;99717.81;154213;1098;103265;-74
2021/08/17 13:05:31;;;;;;;2.70;2.05;;;;;;;21.71;51.57;99714.84;153953;1101;103130;-74
2021/08/17 13:08:34;;;;;;;2.90;2.10;;;;;;;21.88;51.23;99723.91;153968;1093;103480;-74
2021/08/17 13:11:37;;;;;;;2.47;2.03;;;;;;;21.80;50.96;99723.45;153924;1101;103522;-74
2021/08/17 13:14:40;;;;;;;3.50;1.97;;;;;;;21.64;51.25;99739.42;154012;1101;103470;-73
2021/08/17 13:17:43;;;;;;;3.77;2.00;;;;;;;21.45;50.92;99732.48;153995;1101;103289;-74
2021/08/17 13:20:46;;;;;;;2.97;2.00;;;;;;;21.32;51.32;99736.22;154013;1093;103118;-74
2021/08/17 13:23:49;;;;;;;3.83;2.00;;;;;;;21.13;51.27;99738.22;153989;1101;103123;-74
2021/08/17 13:26:52;;;;;;;2.50;2.10;;;;;;;20.97;51.16;99750.59;153969;1101;103160;-74
2021/08/17 13:29:54;;;;;;;2.80;2.20;;;;;;;20.76;51.45;99747.38;153935;1101;103581;-74
2021/08/17 13:32:57;;;;;;;3.48;2.20;;;;;;;20.67;51.65;99748.79;154082;1101;103138;-75
2021/08/17 13:36:00;;;;;;;4.63;2.40;;;;;;;20.64;51.07;99754.66;154012;1101;103111;-74
2021/08/17 13:39:03;;;;;;;4.30;2.63;;;;;;;20.67;51.62;99761.49;153992;1101;103570;-74
2021/08/17 13:42:08;;;;;;;4.07;2.50;;;;;;;20.76;51.60;99754.69;153949;1093;103120;-74
2021/08/17 13:45:13;;;;;;;6.57;2.30;;;;;;;20.87;51.55;99761.20;153950;1101;103203;-74
2021/08/17 13:48:16;;;;;;;3.33;2.20;;;;;;;20.95;50.76;99761.67;154002;1101;103214;-74
2021/08/17 13:51:19;;;;;;;5.87;2.10;;;;;;;20.95;51.55;99769.81;153963;1101;103225;-74
2021/08/17 13:54:22;;;;;;;3.10;2.40;;;;;;;21.01;51.24;99767.23;154056;1101;103096;-74
2021/08/17 13:57:24;;;;;;;3.40;2.10;;;;;;;21.03;51.47;99771.36;153966;1093;103546;-73
2021/08/17 14:00:27;;;;;;;3.80;2.40;;;;;;;21.09;51.05;99775.84;153946;1093;103120;-74
2021/08/17 14:03:30;;;;;;;3.47;2.23;;;;;;;21.05;50.79;99771.95;154039;1101;103211;-74